Wetterdaten: Woche 20.12.10 - 26.12.10 (KW51)
Datum Zeit Temperatur Luftfeuchte Luftdruck Niederschlag Wind Richtung Sonnenschein Solar Taupunkt Windchill Windben
20.12.2010 00:00 6.2 C 86 % 1000.1 hPa 0.8 l/m 12.4 km/h (3 Bft) W-SW 0.00 h 0 W/m 4.0 C 3.9 C 18.0 km/h (3 Bft)
20.12.2010 01:00 4.5 C 92 % 1001.4 hPa 1.2 l/m 4.8 km/h (1 Bft) W 0.00 h 0 W/m 3.2 C 3.6 C 7.4 km/h (2 Bft)
20.12.2010 02:00 4.8 C 94 % 1002.1 hPa 0.4 l/m 12.3 km/h (3 Bft) W 0.00 h 0 W/m 3.9 C 2.0 C 18.5 km/h (3 Bft)
20.12.2010 03:00 4.4 C 93 % 1002.9 hPa 1.2 l/m 19.9 km/h (4 Bft) W 0.00 h 0 W/m 3.3 C 0.4 C 29.2 km/h (5 Bft)
20.12.2010 04:00 3.9 C 92 % 1002.9 hPa 0.0 l/m 18.3 km/h (3 Bft) W 0.00 h 0 W/m 2.8 C 0.0 C 26.5 km/h (4 Bft)
20.12.2010 05:00 3.6 C 93 % 1002.9 hPa 0.2 l/m 13.5 km/h (3 Bft) W 0.00 h 0 W/m 2.5 C 0.3 C 20.7 km/h (4 Bft)
20.12.2010 06:00 3.2 C 94 % 1002.9 hPa 0.2 l/m 6.7 km/h (2 Bft) W 0.00 h 0 W/m 2.2 C 1.6 C 10.7 km/h (2 Bft)
20.12.2010 07:00 3.0 C 94 % 1003.1 hPa 1.0 l/m 1.9 km/h (1 Bft) SW 0.00 h 0 W/m 2.2 C 2.8 C 3.8 km/h (1 Bft)
20.12.2010 08:00 2.6 C 95 % 1003.1 hPa 0.8 l/m 1.0 km/h (0 Bft) S-SW 0.00 h 15 W/m 1.9 C 2.5 C 2.5 km/h (1 Bft)
20.12.2010 09:00 2.5 C 96 % 1002.8 hPa 0.0 l/m 0.7 km/h (0 Bft) O 0.00 h 38 W/m 1.9 C 2.5 C 1.9 km/h (1 Bft)
20.12.2010 10:00 2.4 C 96 % 1002.6 hPa 0.0 l/m 1.9 km/h (1 Bft) N-NW 0.00 h 93 W/m 1.9 C 2.2 C 3.8 km/h (1 Bft)
20.12.2010 11:00 2.9 C 97 % 1002.5 hPa 0.0 l/m 3.6 km/h (1 Bft) N 0.00 h 95 W/m 2.4 C 2.3 C 6.5 km/h (2 Bft)
20.12.2010 12:00 8.3 C 78 % 1001.6 hPa 0.0 l/m 15.2 km/h (3 Bft) SW 0.00 h 70 W/m 4.7 C 5.9 C 23.7 km/h (4 Bft)
20.12.2010 13:00 9.5 C 69 % 1001.7 hPa 0.0 l/m 18.2 km/h (3 Bft) SW 0.00 h 33 W/m 4.0 C 7.0 C 27.1 km/h (4 Bft)
20.12.2010 14:00 8.9 C 74 % 1002.8 hPa 0.4 l/m 15.6 km/h (3 Bft) W-SW 0.00 h 27 W/m 4.5 C 6.6 C 24.5 km/h (4 Bft)
20.12.2010 15:00 8.0 C 80 % 1003.8 hPa 0.4 l/m 11.2 km/h (2 Bft) SW 0.00 h 14 W/m 4.7 C 6.0 C 16.7 km/h (3 Bft)
20.12.2010 16:00 8.4 C 78 % 1004.4 hPa 0.6 l/m 13.6 km/h (3 Bft) W-SW 0.00 h 0 W/m 4.8 C 6.2 C 20.3 km/h (4 Bft)
20.12.2010 17:00 7.5 C 86 % 1005.2 hPa 1.2 l/m 13.5 km/h (3 Bft) W-SW 0.00 h 0 W/m 5.3 C 5.1 C 20.5 km/h (4 Bft)
20.12.2010 18:00 6.5 C 91 % 1005.9 hPa 0.6 l/m 5.3 km/h (1 Bft) NW 0.00 h 0 W/m 5.1 C 5.8 C 8.3 km/h (2 Bft)
20.12.2010 19:00 5.5 C 94 % 1006.8 hPa 0.2 l/m 2.3 km/h (1 Bft) N 0.00 h 0 W/m 4.6 C 5.3 C 3.9 km/h (1 Bft)
20.12.2010 20:00 5.3 C 95 % 1007.0 hPa 0.2 l/m 0.3 km/h (0 Bft) SO 0.00 h 0 W/m 4.5 C 5.3 C 1.1 km/h (1 Bft)
20.12.2010 21:00 5.0 C 96 % 1007.3 hPa 0.0 l/m 1.5 km/h (1 Bft) O-SO 0.00 h 0 W/m 4.4 C 4.9 C 2.9 km/h (1 Bft)
20.12.2010 22:00 4.9 C 96 % 1007.6 hPa 0.0 l/m 2.6 km/h (1 Bft) O-SO 0.00 h 0 W/m 4.3 C 4.8 C 3.9 km/h (1 Bft)
20.12.2010 23:00 4.9 C 96 % 1007.3 hPa 0.0 l/m 1.5 km/h (1 Bft) O-SO 0.00 h 0 W/m 4.3 C 4.8 C 2.8 km/h (1 Bft)
21.12.2010 00:00 4.2 C 96 % 1007.0 hPa 0.0 l/m 0.2 km/h (0 Bft) SO 0.00 h 0 W/m 3.5 C 4.2 C 0.5 km/h (0 Bft)
21.12.2010 01:00 3.3 C 95 % 1006.7 hPa 0.0 l/m 0.1 km/h (0 Bft) SO 0.00 h 0 W/m 2.7 C 3.3 C 0.3 km/h (0 Bft)
21.12.2010 02:00 2.6 C 96 % 1006.7 hPa 0.0 l/m 0.4 km/h (0 Bft) SO 0.00 h 0 W/m 2.1 C 2.6 C 1.0 km/h (0 Bft)
21.12.2010 03:00 2.4 C 97 % 1006.4 hPa 0.0 l/m 0.2 km/h (0 Bft) SO 0.00 h 0 W/m 2.0 C 2.4 C 0.6 km/h (0 Bft)
21.12.2010 04:00 2.0 C 97 % 1006.2 hPa 0.0 l/m 0.7 km/h (0 Bft) SO 0.00 h 0 W/m 1.6 C 2.0 C 1.5 km/h (1 Bft)
21.12.2010 05:00 1.2 C 97 % 1006.2 hPa 0.0 l/m 1.2 km/h (1 Bft) SO 0.00 h 0 W/m 0.8 C 1.2 C 2.1 km/h (1 Bft)
21.12.2010 06:00 0.6 C 97 % 1006.2 hPa 0.0 l/m 1.5 km/h (1 Bft) SO 0.00 h 0 W/m 0.3 C 0.6 C 2.5 km/h (1 Bft)
21.12.2010 07:00 0.3 C 98 % 1006.2 hPa 0.0 l/m 0.7 km/h (0 Bft) SO 0.00 h 0 W/m 0.1 C 0.3 C 1.5 km/h (1 Bft)
21.12.2010 08:00 0.3 C 98 % 1006.5 hPa 0.0 l/m 0.1 km/h (0 Bft) SO 0.05 h 16 W/m 0.1 C 0.3 C 0.3 km/h (0 Bft)
21.12.2010 09:00 0.8 C 98 % 1006.7 hPa 0.0 l/m 0.2 km/h (0 Bft) SO 0.00 h 51 W/m 0.5 C 0.8 C 0.5 km/h (0 Bft)
21.12.2010 10:00 1.5 C 98 % 1007.0 hPa 0.0 l/m 0.4 km/h (0 Bft) SO 0.00 h 84 W/m 1.3 C 1.5 C 1.1 km/h (1 Bft)
21.12.2010 11:00 2.0 C 98 % 1007.0 hPa 0.0 l/m 0.3 km/h (0 Bft) SO 0.00 h 110 W/m 1.7 C 2.0 C 0.9 km/h (0 Bft)
21.12.2010 12:00 2.7 C 98 % 1006.4 hPa 0.0 l/m 0.4 km/h (0 Bft) NO 0.00 h 86 W/m 2.5 C 2.7 C 1.1 km/h (1 Bft)
21.12.2010 13:00 3.0 C 98 % 1006.1 hPa 0.0 l/m 0.4 km/h (0 Bft) NO 0.00 h 43 W/m 2.8 C 3.0 C 1.2 km/h (1 Bft)
21.12.2010 14:00 3.1 C 98 % 1006.2 hPa 1.0 l/m 0.5 km/h (0 Bft) NO 0.00 h 20 W/m 2.9 C 3.1 C 1.4 km/h (1 Bft)
21.12.2010 15:00 3.1 C 98 % 1005.8 hPa 0.8 l/m 0.9 km/h (0 Bft) NW 0.00 h 12 W/m 2.9 C 3.1 C 2.0 km/h (1 Bft)
21.12.2010 16:00 3.1 C 98 % 1005.7 hPa 1.4 l/m 1.0 km/h (0 Bft) N-NW 0.00 h 5 W/m 2.8 C 3.0 C 2.1 km/h (1 Bft)
21.12.2010 17:00 3.2 C 98 % 1005.1 hPa 0.4 l/m 1.4 km/h (1 Bft) O-SO 0.00 h 0 W/m 2.9 C 3.2 C 2.6 km/h (1 Bft)
21.12.2010 18:00 3.4 C 98 % 1005.0 hPa 0.0 l/m 3.1 km/h (1 Bft) S-SO 0.00 h 0 W/m 3.2 C 2.9 C 5.4 km/h (1 Bft)
21.12.2010 19:00 3.6 C 98 % 1004.7 hPa 0.0 l/m 1.0 km/h (0 Bft) S-SO 0.00 h 0 W/m 3.3 C 3.6 C 1.7 km/h (1 Bft)
21.12.2010 20:00 3.6 C 98 % 1004.6 hPa 1.2 l/m 0.5 km/h (0 Bft) NW 0.00 h 0 W/m 3.4 C 3.6 C 1.4 km/h (1 Bft)
21.12.2010 21:00 3.7 C 98 % 1004.2 hPa 1.2 l/m 0.1 km/h (0 Bft) N-NW 0.00 h 0 W/m 3.4 C 3.7 C 0.5 km/h (0 Bft)
21.12.2010 22:00 3.7 C 99 % 1003.5 hPa 0.6 l/m 1.0 km/h (0 Bft) SO 0.00 h 0 W/m 3.5 C 3.7 C 2.0 km/h (1 Bft)
21.12.2010 23:00 3.8 C 99 % 1002.8 hPa 1.2 l/m 0.7 km/h (0 Bft) N-NO 0.00 h 0 W/m 3.6 C 3.8 C 1.9 km/h (1 Bft)
22.12.2010 00:00 3.9 C 99 % 1002.5 hPa 0.4 l/m 1.1 km/h (1 Bft) N-NW 0.00 h 0 W/m 3.7 C 3.9 C 2.6 km/h (1 Bft)
22.12.2010 01:00 3.8 C 99 % 1002.1 hPa 0.2 l/m 1.2 km/h (1 Bft) N-NW 0.00 h 0 W/m 3.7 C 3.8 C 2.7 km/h (1 Bft)
22.12.2010 02:00 3.7 C 98 % 1002.2 hPa 1.6 l/m 0.9 km/h (0 Bft) N 0.00 h 0 W/m 3.5 C 3.7 C 1.9 km/h (1 Bft)
22.12.2010 03:00 3.8 C 99 % 1002.2 hPa 1.0 l/m 0.8 km/h (0 Bft) N 0.00 h 0 W/m 3.7 C 3.8 C 1.6 km/h (1 Bft)
22.12.2010 04:00 3.9 C 99 % 1002.3 hPa 1.8 l/m 0.0 km/h (0 Bft) N 0.00 h 0 W/m 3.7 C 3.9 C 0.0 km/h (0 Bft)
22.12.2010 05:00 3.7 C 99 % 1002.2 hPa 2.4 l/m 0.2 km/h (0 Bft) N 0.00 h 0 W/m 3.5 C 3.7 C 0.5 km/h (0 Bft)
22.12.2010 06:00 3.7 C 99 % 1002.3 hPa 1.4 l/m 1.6 km/h (1 Bft) O-SO 0.00 h 0 W/m 3.6 C 3.7 C 2.8 km/h (1 Bft)
22.12.2010 07:00 4.1 C 99 % 1002.3 hPa 2.2 l/m 1.5 km/h (1 Bft) SO 0.00 h 0 W/m 3.9 C 4.1 C 2.8 km/h (1 Bft)
22.12.2010 08:00 4.2 C 99 % 1002.8 hPa 3.0 l/m 1.6 km/h (1 Bft) SO 0.00 h 7 W/m 4.0 C 4.1 C 3.1 km/h (1 Bft)
22.12.2010 09:00 4.2 C 99 % 1003.3 hPa 0.8 l/m 0.5 km/h (0 Bft) SO 0.00 h 20 W/m 4.1 C 4.2 C 1.5 km/h (1 Bft)
22.12.2010 10:00 4.3 C 99 % 1003.5 hPa 1.2 l/m 0.4 km/h (0 Bft) W-SW 0.00 h 21 W/m 4.2 C 4.3 C 1.4 km/h (1 Bft)
22.12.2010 11:00 4.4 C 99 % 1003.3 hPa 0.0 l/m 0.5 km/h (0 Bft) W-SW 0.00 h 38 W/m 4.2 C 4.4 C 1.6 km/h (1 Bft)
22.12.2010 12:00 4.5 C 99 % 1002.8 hPa 0.2 l/m 0.1 km/h (0 Bft) W-SW 0.00 h 68 W/m 4.3 C 4.5 C 0.6 km/h (0 Bft)
22.12.2010 13:00 4.7 C 99 % 1002.1 hPa 0.0 l/m 0.7 km/h (0 Bft) W-SW 0.00 h 73 W/m 4.6 C 4.7 C 2.0 km/h (1 Bft)
22.12.2010 14:00 5.0 C 99 % 1001.8 hPa 0.0 l/m 0.1 km/h (0 Bft) W 0.00 h 84 W/m 4.9 C 5.0 C 0.8 km/h (0 Bft)
22.12.2010 15:00 5.2 C 99 % 1001.1 hPa 0.0 l/m 0.1 km/h (0 Bft) W 0.33 h 65 W/m 5.0 C 5.2 C 0.5 km/h (0 Bft)
22.12.2010 16:00 4.8 C 99 % 1000.9 hPa 0.0 l/m 0.2 km/h (0 Bft) W 0.22 h 20 W/m 4.6 C 4.8 C 1.0 km/h (0 Bft)
22.12.2010 17:00 4.8 C 99 % 1000.7 hPa 0.0 l/m 0.4 km/h (0 Bft) SO 0.00 h 0 W/m 4.6 C 4.8 C 1.3 km/h (1 Bft)
22.12.2010 18:00 4.6 C 98 % 1000.4 hPa 0.0 l/m 0.0 km/h (0 Bft) N 0.00 h 0 W/m 4.4 C 4.6 C 0.3 km/h (0 Bft)
22.12.2010 19:00 4.5 C 98 % 1000.3 hPa 0.0 l/m 0.4 km/h (0 Bft) SO 0.00 h 0 W/m 4.3 C 4.5 C 1.5 km/h (1 Bft)
22.12.2010 20:00 4.0 C 98 % 1000.4 hPa 0.0 l/m 0.8 km/h (0 Bft) O 0.00 h 0 W/m 3.8 C 4.0 C 1.9 km/h (1 Bft)
22.12.2010 21:00 3.8 C 98 % 1000.2 hPa 0.0 l/m 1.4 km/h (1 Bft) O-SO 0.00 h 0 W/m 3.6 C 3.8 C 3.2 km/h (1 Bft)
22.12.2010 22:00 3.8 C 98 % 999.7 hPa 0.0 l/m 1.1 km/h (0 Bft) W 0.00 h 0 W/m 3.6 C 3.8 C 2.3 km/h (1 Bft)
22.12.2010 23:00 3.5 C 99 % 1000.0 hPa 0.0 l/m 1.3 km/h (1 Bft) N-NO 0.00 h 0 W/m 3.4 C 3.5 C 2.8 km/h (1 Bft)
23.12.2010 00:00 3.4 C 99 % 1000.0 hPa 0.0 l/m 1.6 km/h (1 Bft) SO 0.00 h 0 W/m 3.2 C 3.3 C 3.0 km/h (1 Bft)
23.12.2010 01:00 3.6 C 99 % 999.5 hPa 0.0 l/m 1.2 km/h (1 Bft) O-SO 0.00 h 0 W/m 3.5 C 3.5 C 2.8 km/h (1 Bft)
23.12.2010 02:00 3.5 C 99 % 999.1 hPa 0.0 l/m 0.1 km/h (0 Bft) O-NO 0.00 h 0 W/m 3.3 C 3.5 C 0.6 km/h (0 Bft)
23.12.2010 03:00 3.3 C 99 % 998.9 hPa 0.0 l/m 0.5 km/h (0 Bft) O-NO 0.00 h 0 W/m 3.2 C 3.3 C 1.3 km/h (1 Bft)
23.12.2010 04:00 3.3 C 99 % 998.2 hPa 0.0 l/m 0.5 km/h (0 Bft) N-NO 0.00 h 0 W/m 3.1 C 3.3 C 1.1 km/h (0 Bft)
23.12.2010 05:00 3.3 C 99 % 997.5 hPa 0.0 l/m 0.8 km/h (0 Bft) O-SO 0.00 h 0 W/m 3.1 C 3.2 C 1.8 km/h (1 Bft)
23.12.2010 06:00 2.9 C 99 % 997.0 hPa 0.0 l/m 0.2 km/h (0 Bft) O-SO 0.00 h 0 W/m 2.7 C 2.9 C 0.9 km/h (0 Bft)
23.12.2010 07:00 2.5 C 99 % 996.8 hPa 0.0 l/m 0.1 km/h (0 Bft) N 0.00 h 0 W/m 2.4 C 2.5 C 0.9 km/h (0 Bft)
23.12.2010 08:00 2.4 C 99 % 996.9 hPa 0.0 l/m 0.2 km/h (0 Bft) N 0.00 h 12 W/m 2.3 C 2.4 C 0.6 km/h (0 Bft)
23.12.2010 09:00 2.5 C 99 % 996.9 hPa 0.0 l/m 0.7 km/h (0 Bft) N 0.00 h 32 W/m 2.3 C 2.5 C 1.9 km/h (1 Bft)
23.12.2010 10:00 3.0 C 99 % 996.9 hPa 0.0 l/m 0.1 km/h (0 Bft) N-NO 0.00 h 42 W/m 2.9 C 3.0 C 0.5 km/h (0 Bft)
23.12.2010 11:00 3.4 C 99 % 996.3 hPa 0.0 l/m 0.2 km/h (0 Bft) O-NO 0.00 h 56 W/m 3.2 C 3.4 C 0.8 km/h (0 Bft)
23.12.2010 12:00 4.0 C 99 % 996.0 hPa 0.0 l/m 1.0 km/h (0 Bft) O-SO 0.00 h 83 W/m 3.8 C 4.0 C 2.5 km/h (1 Bft)
23.12.2010 13:00 4.4 C 99 % 995.7 hPa 0.0 l/m 0.9 km/h (0 Bft) SO 0.00 h 68 W/m 4.2 C 4.4 C 2.4 km/h (1 Bft)
23.12.2010 14:00 4.4 C 99 % 995.7 hPa 0.0 l/m 0.8 km/h (0 Bft) S-SO 0.00 h 49 W/m 4.3 C 4.4 C 2.2 km/h (1 Bft)
23.12.2010 15:00 4.6 C 99 % 995.6 hPa 0.0 l/m 0.2 km/h (0 Bft) S-SO 0.00 h 25 W/m 4.4 C 4.6 C 0.7 km/h (0 Bft)
23.12.2010 16:00 4.3 C 99 % 995.6 hPa 0.0 l/m 0.9 km/h (0 Bft) S-SO 0.00 h 12 W/m 4.1 C 4.3 C 2.0 km/h (1 Bft)
23.12.2010 17:00 4.0 C 98 % 995.6 hPa 0.0 l/m 0.2 km/h (0 Bft) S-SO 0.00 h 0 W/m 3.7 C 4.0 C 0.7 km/h (0 Bft)
23.12.2010 18:00 3.7 C 98 % 995.6 hPa 0.0 l/m 0.1 km/h (0 Bft) S-SO 0.00 h 0 W/m 3.4 C 3.7 C 0.5 km/h (0 Bft)
23.12.2010 19:00 3.6 C 98 % 995.7 hPa 0.0 l/m 0.4 km/h (0 Bft) S 0.00 h 0 W/m 3.3 C 3.6 C 0.9 km/h (0 Bft)
23.12.2010 20:00 3.4 C 98 % 995.5 hPa 0.0 l/m 1.6 km/h (1 Bft) W 0.00 h 0 W/m 3.1 C 3.3 C 3.2 km/h (1 Bft)
23.12.2010 21:00 3.1 C 98 % 995.6 hPa 0.0 l/m 1.0 km/h (0 Bft) W 0.00 h 0 W/m 2.9 C 3.1 C 2.2 km/h (1 Bft)
23.12.2010 22:00 3.2 C 98 % 995.8 hPa 0.0 l/m 0.1 km/h (0 Bft) W 0.00 h 0 W/m 2.9 C 3.2 C 0.3 km/h (0 Bft)
23.12.2010 23:00 3.3 C 98 % 995.5 hPa 0.0 l/m 1.2 km/h (1 Bft) SO 0.00 h 0 W/m 3.0 C 3.2 C 2.4 km/h (1 Bft)
24.12.2010 00:00 3.3 C 98 % 995.4 hPa 0.0 l/m 0.3 km/h (0 Bft) SO 0.00 h 0 W/m 3.1 C 3.3 C 0.6 km/h (0 Bft)
24.12.2010 01:00 3.7 C 99 % 994.8 hPa 0.0 l/m 1.7 km/h (1 Bft) W 0.00 h 0 W/m 3.5 C 3.4 C 3.6 km/h (1 Bft)
24.12.2010 02:00 3.9 C 99 % 995.3 hPa 0.2 l/m 1.7 km/h (1 Bft) W-NW 0.00 h 0 W/m 3.7 C 3.7 C 3.4 km/h (1 Bft)
24.12.2010 03:00 3.6 C 99 % 995.4 hPa 0.6 l/m 4.2 km/h (1 Bft) W-NW 0.00 h 0 W/m 3.5 C 3.0 C 6.8 km/h (2 Bft)
24.12.2010 04:00 3.3 C 99 % 995.1 hPa 1.0 l/m 0.9 km/h (0 Bft) W-NW 0.00 h 0 W/m 3.1 C 3.2 C 2.1 km/h (1 Bft)
24.12.2010 05:00 3.2 C 99 % 995.5 hPa 0.6 l/m 0.6 km/h (0 Bft) N 0.00 h 0 W/m 3.1 C 3.2 C 1.9 km/h (1 Bft)
24.12.2010 06:00 2.8 C 98 % 995.8 hPa 1.4 l/m 4.1 km/h (1 Bft) W-SW 0.00 h 0 W/m 2.6 C 2.2 C 6.6 km/h (2 Bft)
24.12.2010 07:00 2.4 C 98 % 996.5 hPa 1.4 l/m 2.0 km/h (1 Bft) W-SW 0.00 h 0 W/m 2.1 C 2.2 C 3.5 km/h (1 Bft)
24.12.2010 08:00 1.7 C 98 % 997.5 hPa 1.4 l/m 0.6 km/h (0 Bft) O-NO 0.00 h 0 W/m 1.4 C 1.7 C 2.0 km/h (1 Bft)
24.12.2010 09:00 1.2 C 98 % 998.3 hPa 0.6 l/m 7.8 km/h (2 Bft) W 0.00 h 7 W/m 0.9 C -1.0 C 12.7 km/h (3 Bft)
24.12.2010 10:00 1.0 C 98 % 999.2 hPa 0.2 l/m 12.9 km/h (3 Bft) W 0.00 h 23 W/m 0.7 C -2.8 C 20.7 km/h (4 Bft)
24.12.2010 11:00 0.9 C 98 % 1000.0 hPa 0.2 l/m 10.5 km/h (2 Bft) W 0.00 h 32 W/m 0.6 C -2.3 C 16.8 km/h (3 Bft)
24.12.2010 12:00 0.7 C 97 % 1000.5 hPa 0.4 l/m 11.1 km/h (2 Bft) W 0.00 h 58 W/m 0.3 C -2.7 C 18.0 km/h (3 Bft)
24.12.2010 13:00 0.7 C 97 % 1000.8 hPa 0.2 l/m 13.0 km/h (3 Bft) W 0.00 h 77 W/m 0.3 C -3.1 C 20.4 km/h (4 Bft)
24.12.2010 14:00 0.8 C 97 % 1001.2 hPa 0.0 l/m 11.2 km/h (2 Bft) W 0.00 h 68 W/m 0.4 C -2.6 C 18.1 km/h (3 Bft)
24.12.2010 15:00 0.7 C 96 % 1001.8 hPa 0.0 l/m 12.6 km/h (3 Bft) W 0.00 h 29 W/m 0.2 C -3.0 C 19.6 km/h (3 Bft)
24.12.2010 16:00 0.6 C 96 % 1002.6 hPa 0.0 l/m 9.7 km/h (2 Bft) W 0.00 h 8 W/m 0.0 C -2.5 C 15.1 km/h (3 Bft)
24.12.2010 17:00 0.4 C 96 % 1003.5 hPa 0.2 l/m 8.3 km/h (2 Bft) W 0.00 h 0 W/m -0.2 C -2.3 C 13.2 km/h (3 Bft)
24.12.2010 18:00 0.3 C 96 % 1004.1 hPa 0.0 l/m 7.3 km/h (2 Bft) W-SW 0.00 h 0 W/m -0.3 C -2.0 C 11.8 km/h (2 Bft)
24.12.2010 19:00 0.2 C 95 % 1004.9 hPa 0.0 l/m 7.9 km/h (2 Bft) W-SW 0.00 h 0 W/m -0.5 C -2.3 C 12.7 km/h (3 Bft)
24.12.2010 20:00 0.1 C 95 % 1005.7 hPa 0.0 l/m 3.7 km/h (1 Bft) SW 0.00 h 0 W/m -0.6 C -0.7 C 6.3 km/h (2 Bft)
24.12.2010 21:00 -0.1 C 95 % 1006.2 hPa 0.0 l/m 1.0 km/h (0 Bft) W-SW 0.00 h 0 W/m -0.8 C -0.2 C 2.6 km/h (1 Bft)
24.12.2010 22:00 -0.3 C 95 % 1006.6 hPa 0.0 l/m 3.1 km/h (1 Bft) W-NW 0.00 h 0 W/m -1.0 C -0.9 C 5.5 km/h (1 Bft)
24.12.2010 23:00 -0.5 C 94 % 1007.2 hPa 0.0 l/m 1.0 km/h (0 Bft) NW 0.00 h 0 W/m -1.3 C -0.7 C 2.0 km/h (1 Bft)
25.12.2010 00:00 -0.8 C 95 % 1007.8 hPa 0.2 l/m 2.8 km/h (1 Bft) W-NW 0.00 h 0 W/m -1.5 C -1.1 C 4.6 km/h (1 Bft)
25.12.2010 01:00 -1.0 C 95 % 1008.5 hPa 0.2 l/m 0.9 km/h (0 Bft) W-NW 0.00 h 0 W/m -1.7 C -1.0 C 2.3 km/h (1 Bft)
25.12.2010 02:00 -1.1 C 95 % 1009.1 hPa 0.4 l/m 0.2 km/h (0 Bft) NW 0.00 h 0 W/m -1.8 C -1.1 C 0.5 km/h (0 Bft)
25.12.2010 03:00 -1.3 C 96 % 1009.9 hPa 0.8 l/m 1.7 km/h (1 Bft) NW 0.00 h 0 W/m -1.9 C -1.3 C 3.5 km/h (1 Bft)
25.12.2010 04:00 -1.6 C 96 % 1010.3 hPa 0.6 l/m 0.3 km/h (0 Bft) N-NW 0.00 h 0 W/m -2.2 C -1.6 C 1.5 km/h (1 Bft)
25.12.2010 05:00 -1.8 C 96 % 1011.1 hPa 0.2 l/m 0.5 km/h (0 Bft) N-NW 0.00 h 0 W/m -2.3 C -1.8 C 1.7 km/h (1 Bft)
25.12.2010 06:00 -2.0 C 95 % 1012.1 hPa 0.4 l/m 1.8 km/h (1 Bft) N-NO 0.00 h 0 W/m -2.7 C -2.2 C 3.9 km/h (1 Bft)
25.12.2010 07:00 -2.5 C 93 % 1013.1 hPa 0.0 l/m 1.3 km/h (1 Bft) N-NO 0.00 h 0 W/m -3.4 C -2.5 C 3.2 km/h (1 Bft)
25.12.2010 08:00 -2.7 C 92 % 1014.1 hPa 0.2 l/m 1.0 km/h (0 Bft) N-NO 0.00 h 8 W/m -3.7 C -2.8 C 2.8 km/h (1 Bft)
25.12.2010 09:00 -2.3 C 90 % 1014.9 hPa 0.0 l/m 1.5 km/h (1 Bft) N-NO 0.00 h 23 W/m -3.6 C -2.3 C 3.4 km/h (1 Bft)
25.12.2010 10:00 -1.7 C 88 % 1015.9 hPa 0.0 l/m 3.5 km/h (1 Bft) N 0.00 h 38 W/m -3.5 C -2.4 C 6.7 km/h (2 Bft)
25.12.2010 11:00 -1.6 C 87 % 1016.6 hPa 0.2 l/m 3.4 km/h (1 Bft) N 0.00 h 39 W/m -3.5 C -2.3 C 7.4 km/h (2 Bft)
25.12.2010 12:00 -2.0 C 85 % 1017.2 hPa 0.0 l/m 2.2 km/h (1 Bft) N-NO 0.13 h 85 W/m -4.1 C -2.3 C 5.1 km/h (1 Bft)
25.12.2010 13:00 -2.1 C 83 % 1017.7 hPa 0.2 l/m 3.4 km/h (1 Bft) N-NO 0.17 h 144 W/m -4.7 C -2.8 C 7.1 km/h (2 Bft)
25.12.2010 14:00 -2.3 C 82 % 1018.1 hPa 0.0 l/m 4.5 km/h (1 Bft) NO 0.00 h 87 W/m -4.9 C -3.4 C 9.6 km/h (2 Bft)
25.12.2010 15:00 -2.4 C 82 % 1019.0 hPa 0.0 l/m 3.4 km/h (1 Bft) O 0.00 h 53 W/m -5.1 C -3.0 C 7.5 km/h (2 Bft)
25.12.2010 16:00 -2.7 C 85 % 1020.1 hPa 0.0 l/m 2.5 km/h (1 Bft) NO 0.08 h 17 W/m -4.9 C -3.1 C 5.9 km/h (2 Bft)
25.12.2010 17:00 -3.1 C 88 % 1021.1 hPa 0.0 l/m 1.3 km/h (1 Bft) O 0.00 h 0 W/m -4.8 C -3.2 C 3.6 km/h (1 Bft)
25.12.2010 18:00 -3.4 C 89 % 1021.9 hPa 0.0 l/m 1.6 km/h (1 Bft) NO 0.00 h 0 W/m -4.9 C -3.5 C 3.9 km/h (1 Bft)
25.12.2010 19:00 -3.6 C 88 % 1022.7 hPa 0.0 l/m 1.6 km/h (1 Bft) O-NO 0.00 h 0 W/m -5.3 C -3.8 C 4.1 km/h (1 Bft)
25.12.2010 20:00 -4.0 C 88 % 1023.3 hPa 0.0 l/m 1.0 km/h (0 Bft) N 0.00 h 0 W/m -5.7 C -4.1 C 2.8 km/h (1 Bft)
25.12.2010 21:00 -4.3 C 88 % 1023.9 hPa 0.0 l/m 0.5 km/h (0 Bft) NO 0.00 h 0 W/m -6.0 C -4.3 C 1.8 km/h (1 Bft)
25.12.2010 22:00 -4.3 C 87 % 1024.6 hPa 0.0 l/m 3.5 km/h (1 Bft) N-NO 0.00 h 0 W/m -6.1 C -5.2 C 7.3 km/h (2 Bft)
25.12.2010 23:00 -4.5 C 86 % 1025.0 hPa 0.0 l/m 1.4 km/h (1 Bft) O-NO 0.00 h 0 W/m -6.5 C -4.7 C 3.9 km/h (1 Bft)
26.12.2010 00:00 -4.9 C 86 % 1025.3 hPa 0.0 l/m 2.5 km/h (1 Bft) NO 0.00 h 0 W/m -6.8 C -5.3 C 5.7 km/h (1 Bft)
26.12.2010 01:00 -5.2 C 85 % 1025.5 hPa 0.0 l/m 2.8 km/h (1 Bft) NO 0.00 h 0 W/m -7.4 C -5.7 C 6.7 km/h (2 Bft)
26.12.2010 02:00 -5.8 C 86 % 1026.0 hPa 0.0 l/m 0.8 km/h (0 Bft) N-NW 0.00 h 0 W/m -7.8 C -5.9 C 2.5 km/h (1 Bft)
26.12.2010 03:00 -6.7 C 86 % 1026.5 hPa 0.0 l/m 0.7 km/h (0 Bft) NO 0.00 h 0 W/m -8.6 C -6.7 C 2.5 km/h (1 Bft)
26.12.2010 04:00 -7.5 C 85 % 1027.1 hPa 0.0 l/m 0.4 km/h (0 Bft) N-NO 0.00 h 0 W/m -9.6 C -7.6 C 1.3 km/h (1 Bft)
26.12.2010 05:00 -8.6 C 89 % 1027.6 hPa 0.0 l/m 0.4 km/h (0 Bft) O-SO 0.00 h 0 W/m -10.1 C -8.6 C 1.1 km/h (0 Bft)
26.12.2010 06:00 -10.1 C 90 % 1028.1 hPa 0.0 l/m 1.6 km/h (1 Bft) O 0.00 h 0 W/m -11.4 C -10.2 C 2.5 km/h (1 Bft)
26.12.2010 07:00 -10.8 C 91 % 1028.7 hPa 0.0 l/m 3.0 km/h (1 Bft) O 0.00 h 0 W/m -12.0 C -11.9 C 4.3 km/h (1 Bft)
26.12.2010 08:00 -11.2 C 91 % 1029.4 hPa 0.0 l/m 3.9 km/h (1 Bft) O 0.20 h 21 W/m -12.4 C -12.6 C 5.4 km/h (1 Bft)
26.12.2010 09:00 -10.9 C 90 % 1030.0 hPa 0.0 l/m 2.3 km/h (1 Bft) O 0.17 h 66 W/m -12.2 C -11.1 C 3.4 km/h (1 Bft)
26.12.2010 10:00 -10.0 C 90 % 1030.3 hPa 0.0 l/m 2.8 km/h (1 Bft) O 0.07 h 80 W/m -11.3 C -10.6 C 4.0 km/h (1 Bft)
26.12.2010 11:00 -8.0 C 91 % 1030.1 hPa 0.0 l/m 1.3 km/h (1 Bft) SO 0.98 h 241 W/m -9.3 C -8.0 C 2.5 km/h (1 Bft)
26.12.2010 12:00 -5.8 C 87 % 1029.4 hPa 0.0 l/m 0.4 km/h (0 Bft) W-SW 0.98 h 260 W/m -7.7 C -5.8 C 1.7 km/h (1 Bft)
26.12.2010 13:00 -5.1 C 84 % 1028.9 hPa 0.0 l/m 0.4 km/h (0 Bft) S-SO 1.00 h 220 W/m -7.5 C -5.1 C 1.2 km/h (1 Bft)
26.12.2010 14:00 -5.1 C 80 % 1028.5 hPa 0.0 l/m 0.0 km/h (0 Bft) N 0.72 h 150 W/m -8.0 C -5.1 C 0.0 km/h (0 Bft)
26.12.2010 15:00 -5.2 C 81 % 1028.4 hPa 0.0 l/m 0.0 km/h (0 Bft) N 0.62 h 76 W/m -7.9 C -5.2 C 0.0 km/h (0 Bft)
26.12.2010 16:00 -6.4 C 86 % 1028.7 hPa 0.0 l/m 0.0 km/h (0 Bft) N 0.05 h 16 W/m -8.4 C -6.4 C 0.0 km/h (0 Bft)
26.12.2010 17:00 -8.0 C 90 % 1029.2 hPa 0.0 l/m 0.0 km/h (0 Bft) N 0.00 h 0 W/m -9.3 C -8.0 C 0.0 km/h (0 Bft)
26.12.2010 18:00 -8.9 C 92 % 1029.6 hPa 0.0 l/m 0.0 km/h (0 Bft) N 0.00 h 0 W/m -10.0 C -8.9 C 0.0 km/h (0 Bft)
26.12.2010 19:00 -10.2 C 91 % 1030.1 hPa 0.0 l/m 0.0 km/h (0 Bft) N 0.00 h 0 W/m -11.4 C -10.2 C 0.0 km/h (0 Bft)
26.12.2010 20:00 -10.7 C 92 % 1030.1 hPa 0.0 l/m 0.0 km/h (0 Bft) N 0.00 h 0 W/m -11.7 C -10.7 C 0.0 km/h (0 Bft)
26.12.2010 21:00 -11.1 C 91 % 1030.0 hPa 0.0 l/m 0.0 km/h (0 Bft) N 0.00 h 0 W/m -12.2 C -11.1 C 0.0 km/h (0 Bft)
26.12.2010 22:00 -11.6 C 92 % 1029.8 hPa 0.0 l/m 0.0 km/h (0 Bft) N 0.00 h 0 W/m -12.7 C -11.6 C 0.0 km/h (0 Bft)
26.12.2010 23:00 -11.1 C 92 % 1029.5 hPa 0.0 l/m 0.0 km/h (0 Bft) N 0.00 h 0 W/m -12.2 C -11.1 C 0.0 km/h (0 Bft)
Min-Datum _ 26.12.10 20.12.10 24.12.10 - 20.12.10 - - - 26.12.10 26.12.10 20.12.10
_ Min-Zeit 22:20 13:34 01:00 - 01:11 - - - 22:20 08:44 06:51
Minimum _ -12.2 C 67 % 994.7 hPa - 0.0 km/h (0 Bft) - - - -13.5 C -15.6 C 0.0 km/h (0 Bft)
Max-Datum _ 20.12.10 20.12.10 26.12.10 22.12.10 20.12.10 - 21.12.10 26.12.10 20.12.10 20.12.10 20.12.10
_ Max-Zeit 13:34 09:30 10:15 08:01 04:07 - 08:25 12:12 17:41 13:46 13:52
Maximum _ 9.7 C 100 % 1030.4 hPa 3.0 l/m 33.9 km/h
W (5 Bft)
- 0.02 h 287 W/m 6.0 C 8.7 C 53.9 km/h
W-SW (7 Bft)
Durchschnitt _ 0.9 C 94 % 1007.6 hPa #45.2 l/m 2.7 km/h (1 Bft) W #5:46 h 58 W/m 0.0 C 0.4 C 4.7 km/h (1 Bft)
© Kaiko 2010